Time;durP1;ratioP1;P1;durP2;ratioP2;P2;SDS_P1;SDS_P2;PMS_P1;PMS_P2;Temp;Humidity;BMP_temperature;BMP_pressure;BME280_temperature;BME280_humidity;BME280_pressure;Samples;Min_cycle;Max_cycle;Signal;HPM_P1;HPM_P2
2022/09/01 00:00:59;;;;;;;2.42;1.00;;;16.50;99.90;;;;;;4883305;29;20048;-79
2022/09/01 00:03:26;;;;;;;4.43;1.00;;;16.40;99.90;;;;;;4882827;29;20401;-80
2022/09/01 00:05:54;;;;;;;2.35;0.90;;;16.50;99.90;;;;;;4899788;29;20049;-80
2022/09/01 00:08:20;;;;;;;3.90;0.80;;;16.40;99.90;;;;;;4899759;29;20053;-80
2022/09/01 00:10:46;;;;;;;5.63;1.00;;;16.40;99.90;;;;;;4882870;29;20044;-80
2022/09/01 00:13:12;;;;;;;2.42;0.70;;;16.40;99.90;;;;;;4882878;29;20192;-80
2022/09/01 00:15:38;;;;;;;3.60;0.77;;;16.30;99.90;;;;;;4882683;29;20048;-80
2022/09/01 00:18:04;;;;;;;1.67;0.90;;;16.30;99.90;;;;;;4899412;29;20097;-80
2022/09/01 00:20:29;;;;;;;3.13;0.90;;;16.30;99.90;;;;;;4898388;29;20048;-80
2022/09/01 00:22:55;;;;;;;1.92;1.00;;;16.30;99.90;;;;;;4882766;29;20115;-80
2022/09/01 00:25:22;;;;;;;1.70;0.70;;;16.20;99.90;;;;;;4898648;29;20049;-80
2022/09/01 00:27:48;;;;;;;2.35;0.90;;;16.20;99.90;;;;;;4899379;29;20412;-81
2022/09/01 00:30:14;;;;;;;1.23;0.80;;;16.10;99.90;;;;;;4899789;29;20087;-81
2022/09/01 00:32:40;;;;;;;1.60;0.73;;;16.10;99.90;;;;;;4898992;29;20068;-80
2022/09/01 00:35:07;;;;;;;1.25;0.73;;;16.10;99.90;;;;;;4899193;29;20064;-80
2022/09/01 00:37:33;;;;;;;1.80;0.88;;;16.10;99.90;;;;;;4899250;29;20052;-80
2022/09/01 00:39:58;;;;;;;4.57;1.50;;;16.00;99.90;;;;;;4882400;29;20104;-80
2022/09/01 00:42:24;;;;;;;1.48;0.80;;;16.00;99.90;;;;;;4882671;29;20113;-80
2022/09/01 00:44:50;;;;;;;3.42;1.02;;;16.00;99.90;;;;;;4882355;29;20115;-80
2022/09/01 00:47:15;;;;;;;4.00;0.80;;;16.00;99.90;;;;;;4899101;29;20049;-80
2022/09/01 00:49:46;;;;;;;2.33;0.90;;;16.00;99.90;;;;;;4899002;29;20044;-81
2022/09/01 00:52:23;;;;;;;1.30;0.70;;;16.00;99.90;;;;;;4899205;29;20048;-80
2022/09/01 00:54:56;;;;;;;2.88;0.80;;;15.90;99.90;;;;;;4898952;29;20048;-80
2022/09/01 00:57:22;;;;;;;2.92;0.75;;;15.90;99.90;;;;;;4899470;29;20095;-80
2022/09/01 00:59:55;;;;;;;1.70;0.80;;;15.90;99.90;;;;;;4882191;29;20400;-80
2022/09/01 01:02:21;;;;;;;1.92;0.93;;;15.80;99.90;;;;;;4882500;29;20055;-80
2022/09/01 01:04:47;;;;;;;1.75;1.00;;;15.80;99.90;;;;;;4898813;29;20108;-79
2022/09/01 01:07:14;;;;;;;2.40;1.00;;;15.80;99.90;;;;;;4882298;29;20397;-79
2022/09/01 01:09:43;;;;;;;1.98;0.90;;;15.80;99.90;;;;;;4898742;29;20057;-80
2022/09/01 01:12:16;;;;;;;2.00;0.95;;;15.70;99.90;;;;;;4881768;29;20059;-79
2022/09/01 01:14:48;;;;;;;2.63;1.00;;;15.70;99.90;;;;;;4898685;29;20080;-80
2022/09/01 01:17:15;;;;;;;7.20;1.00;;;15.70;99.90;;;;;;4898746;29;20056;-80
2022/09/01 01:23:01;;;;;;;6.63;1.20;;;15.60;99.90;;;;;;4898926;29;20064;-79
2022/09/01 01:25:43;;;;;;;2.53;0.90;;;15.60;99.90;;;;;;4898738;29;20059;-80
2022/09/01 01:28:29;;;;;;;1.45;0.68;;;15.60;99.90;;;;;;4881845;29;20117;-80
2022/09/01 01:31:11;;;;;;;3.30;0.90;;;15.60;99.90;;;;;;4898659;29;20088;-80
2022/09/01 01:33:42;;;;;;;2.78;1.00;;;15.50;99.90;;;;;;4898472;29;20128;-80
2022/09/01 01:36:11;;;;;;;3.15;0.90;;;15.50;99.90;;;;;;4883672;29;20112;-80
2022/09/01 01:38:43;;;;;;;3.28;1.02;;;15.50;99.90;;;;;;4885746;29;20077;-80
2022/09/01 01:41:10;;;;;;;3.53;0.80;;;15.50;99.90;;;;;;4902397;29;20048;-79
2022/09/01 01:43:37;;;;;;;2.95;1.00;;;15.50;99.90;;;;;;4885543;29;20052;-80
2022/09/01 01:46:06;;;;;;;2.50;0.82;;;15.50;99.90;;;;;;4902329;29;20125;-80
2022/09/01 01:48:33;;;;;;;3.00;0.65;;;15.50;99.90;;;;;;4885356;29;20051;-79
2022/09/01 01:51:03;;;;;;;1.25;0.68;;;15.50;99.90;;;;;;4885519;29;20135;-80
2022/09/01 01:53:29;;;;;;;3.08;0.70;;;15.50;99.90;;;;;;4885560;29;20064;-80
2022/09/01 01:55:58;;;;;;;1.73;0.80;;;15.50;99.90;;;;;;4902059;29;20044;-79
2022/09/01 01:58:25;;;;;;;1.85;0.70;;;15.50;99.90;;;;;;4885405;29;20388;-80
2022/09/01 02:00:53;;;;;;;1.25;0.70;;;15.60;99.90;;;;;;4885331;29;20072;-80
2022/09/01 02:03:21;;;;;;;3.22;0.80;;;15.60;99.90;;;;;;4902050;29;20076;-80
2022/09/01 02:05:49;;;;;;;2.38;0.85;;;15.60;99.90;;;;;;4885375;29;20108;-80
2022/09/01 02:08:20;;;;;;;3.13;0.77;;;15.60;99.90;;;;;;4885289;29;20395;-80
2022/09/01 02:10:49;;;;;;;3.45;1.10;;;15.70;99.90;;;;;;4884975;29;20056;-80
2022/09/01 02:13:17;;;;;;;2.15;0.93;;;15.60;99.90;;;;;;4901839;29;20092;-79
2022/09/01 02:15:47;;;;;;;1.42;0.65;;;15.60;99.90;;;;;;4884819;29;20544;-80
2022/09/01 02:18:19;;;;;;;1.67;0.93;;;15.60;99.90;;;;;;4884897;29;20059;-80
2022/09/01 02:20:48;;;;;;;4.23;0.90;;;15.70;99.90;;;;;;4884655;29;20136;-80
2022/09/01 02:23:16;;;;;;;1.92;0.80;;;15.70;99.90;;;;;;4884670;29;20057;-80
2022/09/01 02:25:44;;;;;;;2.10;0.93;;;15.60;99.90;;;;;;4901494;29;20053;-80
2022/09/01 02:28:15;;;;;;;3.17;0.63;;;15.70;99.90;;;;;;4884942;29;20075;-80
2022/09/01 02:30:48;;;;;;;3.33;1.00;;;15.70;99.90;;;;;;4884491;29;20127;-80
2022/09/01 02:33:18;;;;;;;4.90;1.10;;;15.70;99.90;;;;;;4901565;29;20048;-80
2022/09/01 02:35:53;;;;;;;2.25;0.85;;;15.70;99.90;;;;;;4901335;29;20370;-82
2022/09/01 02:38:19;;;;;;;4.45;1.13;;;15.80;99.90;;;;;;4901245;29;20488;-80
2022/09/01 02:40:47;;;;;;;2.22;0.90;;;15.80;99.90;;;;;;4884686;29;20126;-80
2022/09/01 02:43:18;;;;;;;2.13;0.90;;;15.80;99.90;;;;;;4884549;29;20080;-80
2022/09/01 02:45:45;;;;;;;2.83;1.05;;;15.80;99.90;;;;;;4901325;29;20404;-81
2022/09/01 02:48:12;;;;;;;3.08;0.90;;;15.80;99.90;;;;;;4883068;29;20056;-80
2022/09/01 02:50:40;;;;;;;2.65;1.00;;;15.80;99.90;;;;;;4884466;29;20076;-79
2022/09/01 02:53:08;;;;;;;1.60;0.80;;;15.90;99.90;;;;;;4884541;29;20052;-81
2022/09/01 02:55:41;;;;;;;1.40;0.93;;;15.90;99.90;;;;;;4884188;29;20076;-80
2022/09/01 02:58:15;;;;;;;2.88;1.00;;;15.90;99.90;;;;;;4884435;29;20052;-80
2022/09/01 03:00:42;;;;;;;2.03;1.33;;;15.90;99.90;;;;;;4884096;29;20144;-80
2022/09/01 03:03:08;;;;;;;2.40;1.10;;;15.90;99.90;;;;;;4884069;29;20056;-80
2022/09/01 03:05:35;;;;;;;1.90;0.90;;;15.90;99.90;;;;;;4884285;29;20049;-79
2022/09/01 03:08:09;;;;;;;1.83;0.75;;;15.90;99.90;;;;;;4883829;29;20100;-80
2022/09/01 03:10:40;;;;;;;3.28;0.93;;;15.80;99.90;;;;;;4884119;29;20052;-80
2022/09/01 03:13:18;;;;;;;2.95;1.15;;;15.90;99.90;;;;;;4900872;29;20047;-80
2022/09/01 03:15:44;;;;;;;1.85;1.10;;;15.90;99.90;;;;;;4883906;29;20053;-80
2022/09/01 03:18:12;;;;;;;3.92;0.82;;;15.90;99.90;;;;;;4883789;29;20385;-80
2022/09/01 03:20:42;;;;;;;2.97;0.93;;;15.90;99.90;;;;;;4900618;29;20063;-80
2022/09/01 03:23:13;;;;;;;2.85;0.80;;;15.90;99.90;;;;;;4900560;29;20060;-81
2022/09/01 03:25:40;;;;;;;2.20;0.80;;;16.00;99.90;;;;;;4883879;29;20048;-79
2022/09/01 03:28:06;;;;;;;2.50;1.02;;;15.90;99.90;;;;;;4900403;29;20057;-80
2022/09/01 03:30:33;;;;;;;2.08;0.90;;;15.90;99.90;;;;;;4883951;29;20389;-80
2022/09/01 03:33:01;;;;;;;1.85;0.98;;;15.90;99.90;;;;;;4883438;29;20064;-80
2022/09/01 03:35:30;;;;;;;2.45;0.90;;;15.90;99.90;;;;;;4883637;29;20052;-79
2022/09/01 03:37:57;;;;;;;2.88;1.00;;;15.90;99.90;;;;;;4883506;29;20485;-81
2022/09/01 03:40:31;;;;;;;4.13;0.93;;;15.80;99.90;;;;;;4883362;29;20130;-82
2022/09/01 03:42:58;;;;;;;2.17;0.93;;;15.80;99.90;;;;;;4883429;29;20544;-81
2022/09/01 03:45:24;;;;;;;2.88;1.20;;;15.80;99.90;;;;;;4883571;29;20116;-81
2022/09/01 03:47:53;;;;;;;2.55;1.15;;;15.70;99.90;;;;;;4883633;29;20060;-81
2022/09/01 03:50:21;;;;;;;2.55;1.13;;;15.70;99.90;;;;;;4900098;29;20056;-81
2022/09/01 03:52:53;;;;;;;2.03;0.85;;;15.60;99.90;;;;;;4882970;29;20043;-81
2022/09/01 03:55:22;;;;;;;2.80;1.00;;;15.60;99.90;;;;;;4883016;29;20044;-82
2022/09/01 03:57:57;;;;;;;2.45;1.30;;;15.70;99.90;;;;;;4883140;29;20052;-81
2022/09/01 04:00:28;;;;;;;2.15;1.30;;;15.60;99.90;;;;;;4883071;29;20040;-81
2022/09/01 04:02:56;;;;;;;2.03;1.00;;;15.60;99.90;;;;;;4883898;29;20048;-81
2022/09/01 04:05:27;;;;;;;2.28;0.95;;;15.50;99.90;;;;;;4899720;29;20056;-81
2022/09/01 04:08:00;;;;;;;2.03;1.10;;;15.50;99.90;;;;;;4883300;29;20048;-80
2022/09/01 04:10:26;;;;;;;3.30;1.23;;;15.50;99.90;;;;;;4882890;29;20041;-80
2022/09/01 04:12:55;;;;;;;2.38;1.10;;;15.40;99.90;;;;;;4899659;29;20049;-80
2022/09/01 04:15:21;;;;;;;2.13;1.27;;;15.40;99.90;;;;;;4882596;29;20497;-80
2022/09/01 04:20:38;;;;;;;2.92;1.50;;;15.40;99.90;;;;;;4882686;29;20412;-80
2022/09/01 04:23:09;;;;;;;1.90;1.10;;;15.30;99.90;;;;;;4899562;29;20044;-80
2022/09/01 04:25:37;;;;;;;4.47;2.13;;;15.30;99.90;;;;;;4882622;29;20448;-80
2022/09/01 04:28:11;;;;;;;2.65;1.20;;;15.20;99.90;;;;;;4882736;29;20061;-80
2022/09/01 04:30:41;;;;;;;2.28;1.30;;;15.20;99.90;;;;;;4882272;29;20068;-80
2022/09/01 04:33:09;;;;;;;2.88;1.30;;;15.20;99.90;;;;;;4882186;29;20060;-80
2022/09/01 04:35:39;;;;;;;4.45;1.50;;;15.20;99.90;;;;;;4882319;29;20071;-80
2022/09/01 04:38:07;;;;;;;2.40;1.10;;;15.20;99.90;;;;;;4882255;29;20049;-80
2022/09/01 04:40:39;;;;;;;4.20;1.40;;;15.20;99.90;;;;;;4897820;29;20045;-80
2022/09/01 04:43:06;;;;;;;3.25;1.58;;;15.20;99.90;;;;;;4882196;29;20048;-80
2022/09/01 04:45:35;;;;;;;2.47;1.25;;;15.20;99.90;;;;;;4882277;29;20123;-80
2022/09/01 04:48:02;;;;;;;3.63;1.38;;;15.20;99.90;;;;;;4899063;29;20049;-80
2022/09/01 04:50:29;;;;;;;3.38;1.25;;;15.20;99.90;;;;;;4881861;29;20044;-80
2022/09/01 04:53:01;;;;;;;2.15;1.27;;;15.20;99.90;;;;;;4898960;29;20123;-80
2022/09/01 04:55:28;;;;;;;5.80;1.40;;;15.20;99.90;;;;;;4881962;29;20536;-80
2022/09/01 04:57:57;;;;;;;2.78;1.27;;;15.20;99.90;;;;;;4881854;29;20055;-81
2022/09/01 05:00:24;;;;;;;2.03;1.13;;;15.30;99.90;;;;;;4882217;29;20405;-80
2022/09/01 05:03:02;;;;;;;2.72;1.60;;;15.20;99.90;;;;;;4881885;29;20053;-81
2022/09/01 05:05:35;;;;;;;5.20;1.70;;;15.20;99.90;;;;;;4898818;29;20044;-80
2022/09/01 05:08:01;;;;;;;3.25;1.85;;;15.30;99.90;;;;;;4881835;29;20051;-81
2022/09/01 05:10:28;;;;;;;2.67;1.25;;;15.20;99.90;;;;;;4881059;29;20048;-80
2022/09/01 05:12:56;;;;;;;3.15;1.38;;;15.30;99.90;;;;;;4881609;29;20481;-80
2022/09/01 05:15:22;;;;;;;2.72;1.35;;;15.30;99.90;;;;;;4881901;29;20059;-81
2022/09/01 05:17:48;;;;;;;2.95;1.48;;;15.30;99.90;;;;;;4881842;29;20056;-81
2022/09/01 05:20:15;;;;;;;2.28;1.10;;;15.30;99.90;;;;;;4881807;29;20516;-80
2022/09/01 05:22:41;;;;;;;3.58;1.40;;;15.30;99.90;;;;;;4881594;29;20045;-81
2022/09/01 05:25:12;;;;;;;3.97;1.30;;;15.40;99.90;;;;;;4881766;29;20060;-80
2022/09/01 05:27:48;;;;;;;1.80;1.30;;;15.40;99.90;;;;;;4898336;29;20516;-80
2022/09/01 05:30:16;;;;;;;1.83;1.10;;;15.40;99.90;;;;;;4881503;29;20048;-82
2022/09/01 05:32:46;;;;;;;2.65;1.33;;;15.40;99.90;;;;;;4881331;29;20461;-81
2022/09/01 05:35:12;;;;;;;2.60;1.30;;;15.40;99.90;;;;;;4881426;29;20123;-81
2022/09/01 05:37:38;;;;;;;3.10;1.40;;;15.40;99.90;;;;;;4898449;29;20131;-82
2022/09/01 05:40:08;;;;;;;2.00;1.17;;;15.50;99.90;;;;;;4881640;29;20120;-80
2022/09/01 05:42:39;;;;;;;1.80;1.00;;;15.50;99.90;;;;;;4878727;29;20049;-81
2022/09/01 05:45:06;;;;;;;2.28;1.27;;;15.60;99.90;;;;;;4898210;29;20049;-80
2022/09/01 05:47:35;;;;;;;1.58;0.98;;;15.50;99.90;;;;;;4881383;29;20052;-81
2022/09/01 05:50:02;;;;;;;3.35;1.00;;;15.60;99.90;;;;;;4898559;29;20120;-80
2022/09/01 05:52:32;;;;;;;3.03;1.23;;;15.70;99.90;;;;;;4898261;29;20052;-81
2022/09/01 05:54:59;;;;;;;5.00;1.30;;;15.70;99.90;;;;;;4881194;29;20045;-81
2022/09/01 05:57:25;;;;;;;2.35;1.27;;;15.70;99.90;;;;;;4898378;29;20052;-80
2022/09/01 05:59:52;;;;;;;1.80;1.25;;;15.70;99.90;;;;;;4874854;29;20469;-80
2022/09/01 06:02:22;;;;;;;3.83;1.30;;;15.80;99.90;;;;;;4865233;29;20065;-79
2022/09/01 06:04:48;;;;;;;3.70;1.30;;;15.80;99.90;;;;;;4862721;29;20060;-80
2022/09/01 06:07:17;;;;;;;3.10;1.30;;;15.80;99.90;;;;;;4879432;29;20049;-79
2022/09/01 06:09:47;;;;;;;2.90;1.33;;;15.90;99.90;;;;;;4879266;29;20053;-80
2022/09/01 06:12:20;;;;;;;2.42;1.30;;;15.90;99.90;;;;;;4879330;29;20132;-80
2022/09/01 06:14:48;;;;;;;3.20;1.20;;;16.00;99.90;;;;;;4879336;29;20071;-83
2022/09/01 06:17:15;;;;;;;2.30;1.27;;;16.00;99.90;;;;;;4879306;29;20052;-82
2022/09/01 06:19:41;;;;;;;4.00;1.25;;;16.00;99.90;;;;;;4862625;29;20060;-81
2022/09/01 06:22:09;;;;;;;2.72;1.20;;;16.10;99.90;;;;;;4864205;29;20113;-81
2022/09/01 06:24:38;;;;;;;4.32;1.50;;;16.10;99.90;;;;;;4866216;29;20049;-82
2022/09/01 06:27:08;;;;;;;3.17;1.10;;;16.10;99.90;;;;;;4866304;29;20097;-80
2022/09/01 06:29:34;;;;;;;3.15;1.20;;;16.10;99.90;;;;;;4866082;29;20120;-80
2022/09/01 06:32:01;;;;;;;4.43;1.35;;;16.10;99.90;;;;;;4852656;29;20069;-80
2022/09/01 06:34:28;;;;;;;2.35;1.35;;;16.10;99.90;;;;;;4847552;29;20057;-80
2022/09/01 06:36:53;;;;;;;2.78;1.20;;;16.20;99.90;;;;;;4847179;29;20061;-81
2022/09/01 06:39:19;;;;;;;2.67;1.05;;;16.20;99.90;;;;;;4863815;29;20057;-81
2022/09/01 06:41:48;;;;;;;2.05;1.10;;;16.20;99.90;;;;;;4847357;29;20046;-81
2022/09/01 06:44:14;;;;;;;2.83;1.35;;;16.30;99.90;;;;;;4847116;29;20494;-81
2022/09/01 06:46:40;;;;;;;2.30;1.25;;;16.30;99.90;;;;;;4847386;29;20378;-80
2022/09/01 06:49:10;;;;;;;1.40;0.90;;;16.40;99.90;;;;;;4863641;29;20549;-81
2022/09/01 07:10:26;;;;;;;2.13;1.05;;;16.70;99.90;;;;;;4880027;27;20049;-80
2022/09/01 07:12:56;;;;;;;3.40;1.10;;;16.80;99.90;;;;;;4865375;29;20079;-80
2022/09/01 07:15:23;;;;;;;2.72;1.20;;;16.80;99.90;;;;;;4865039;29;20056;-79
2022/09/01 07:17:54;;;;;;;1.73;0.98;;;16.80;99.90;;;;;;4865102;29;20077;-80
2022/09/01 07:20:23;;;;;;;2.90;1.30;;;16.90;99.90;;;;;;4865264;29;20053;-80
2022/09/01 07:22:49;;;;;;;2.92;1.30;;;17.00;99.90;;;;;;4881815;29;20064;-80
2022/09/01 07:25:16;;;;;;;2.42;1.13;;;17.00;99.90;;;;;;4865021;29;20041;-82
2022/09/01 07:27:49;;;;;;;3.55;1.08;;;17.00;99.90;;;;;;4881429;29;20045;-82
2022/09/01 07:30:21;;;;;;;2.75;1.30;;;17.10;99.90;;;;;;4865184;29;20060;-82
2022/09/01 07:32:49;;;;;;;3.53;1.38;;;17.20;99.90;;;;;;4881265;29;20071;-82
2022/09/01 07:35:18;;;;;;;1.60;1.00;;;17.30;99.90;;;;;;4864509;29;20048;-82
2022/09/01 07:37:47;;;;;;;2.22;1.42;;;17.20;99.90;;;;;;4864607;29;20057;-81
2022/09/01 07:40:20;;;;;;;2.22;1.42;;;17.30;99.90;;;;;;4864953;29;20132;-82
2022/09/01 07:42:47;;;;;;;2.78;1.10;;;17.30;99.90;;;;;;4865099;29;20518;-82
2022/09/01 07:45:15;;;;;;;2.83;1.40;;;17.40;99.90;;;;;;4864690;29;20112;-82
2022/09/01 07:47:43;;;;;;;2.58;1.30;;;17.50;99.90;;;;;;4864834;29;20135;-83
2022/09/01 07:50:11;;;;;;;2.22;1.30;;;17.50;99.90;;;;;;4864883;29;20045;-80
2022/09/01 07:52:48;;;;;;;2.28;1.20;;;17.50;99.90;;;;;;4864522;29;20158;-82
2022/09/01 07:55:15;;;;;;;2.30;1.10;;;17.70;99.90;;;;;;4881350;29;20161;-81
2022/09/01 07:57:44;;;;;;;1.17;0.90;;;17.80;99.90;;;;;;4864386;29;20521;-82
2022/09/01 08:00:13;;;;;;;1.92;1.10;;;17.90;99.90;;;;;;4864346;29;20113;-80
2022/09/01 08:02:40;;;;;;;2.38;1.00;;;18.10;99.90;;;;;;4864502;29;20113;-79
2022/09/01 08:05:07;;;;;;;3.92;1.38;;;18.30;99.90;;;;;;4880985;29;20056;-80
2022/09/01 08:07:36;;;;;;;2.30;0.93;;;18.50;99.90;;;;;;4864350;29;20538;-80
2022/09/01 08:10:04;;;;;;;2.70;1.10;;;18.70;99.90;;;;;;4864068;29;20127;-80
2022/09/01 08:12:30;;;;;;;2.15;1.25;;;18.80;99.90;;;;;;4864352;29;20508;-79
2022/09/01 08:14:56;;;;;;;2.20;1.27;;;18.80;99.90;;;;;;4863912;29;20053;-80
2022/09/01 08:17:21;;;;;;;3.22;1.20;;;18.80;99.90;;;;;;4863958;29;20052;-79
2022/09/01 08:19:47;;;;;;;2.63;1.05;;;18.80;99.90;;;;;;4864039;29;20049;-79
2022/09/01 08:22:14;;;;;;;3.75;1.45;;;18.90;99.90;;;;;;4863951;29;20052;-81
2022/09/01 08:24:40;;;;;;;2.00;1.17;;;19.00;99.90;;;;;;4880758;29;20119;-80
2022/09/01 08:27:05;;;;;;;4.53;1.50;;;19.10;99.90;;;;;;4863734;29;20128;-80
2022/09/01 08:29:31;;;;;;;4.47;1.27;;;19.00;99.90;;;;;;4863806;29;20113;-81
2022/09/01 08:31:57;;;;;;;3.20;1.38;;;19.10;99.90;;;;;;4880591;29;20045;-79
2022/09/01 08:34:24;;;;;;;1.83;1.10;;;19.30;99.90;;;;;;4863933;29;20052;-80
2022/09/01 08:36:50;;;;;;;2.65;1.08;;;19.40;99.90;;;;;;4880355;29;20048;-78
2022/09/01 08:39:16;;;;;;;2.97;1.00;;;19.60;99.90;;;;;;4863810;29;20056;-80
2022/09/01 08:42:10;;;;;;;2.47;1.00;;;19.70;99.90;;;;;;4863718;29;20140;-79
2022/09/01 08:45:02;;;;;;;2.42;0.80;;;19.90;99.90;;;;;;4878444;29;20065;-79
2022/09/01 08:47:28;;;;;;;2.92;1.20;;;19.90;99.90;;;;;;4880314;29;20053;-81
2022/09/01 08:49:55;;;;;;;3.65;0.80;;;19.70;99.90;;;;;;4863643;29;20043;-80
2022/09/01 08:52:29;;;;;;;2.15;0.75;;;19.90;99.90;;;;;;4863549;29;20497;-80
2022/09/01 08:55:33;;;;;;;3.20;1.00;;;19.80;99.90;;;;;;4863353;29;20045;-80
2022/09/01 08:58:00;;;;;;;2.67;1.00;;;20.00;99.90;;;;;;4880220;29;20049;-81
2022/09/01 09:00:29;;;;;;;2.90;1.05;;;20.00;99.90;;;;;;4863370;29;20520;-81
2022/09/01 09:03:00;;;;;;;1.85;0.95;;;19.70;99.90;;;;;;4863507;29;20402;-80
2022/09/01 09:05:56;;;;;;;1.65;0.80;;;19.70;99.90;;;;;;4863410;29;20056;-80
2022/09/01 09:08:31;;;;;;;1.52;0.77;;;19.80;99.90;;;;;;4863443;29;20099;-80
2022/09/01 09:11:15;;;;;;;2.20;1.00;;;19.80;99.90;;;;;;4863106;29;20455;-78
2022/09/01 09:13:59;;;;;;;3.90;1.02;;;19.80;99.90;;;;;;4880074;29;20047;-80
2022/09/01 09:16:27;;;;;;;3.75;1.02;;;19.90;99.90;;;;;;4863124;29;20106;-79
2022/09/01 09:18:58;;;;;;;1.92;0.70;;;20.00;99.90;;;;;;4863046;29;20129;-80
2022/09/01 09:21:38;;;;;;;2.63;1.05;;;20.10;99.90;;;;;;4862979;29;20049;-79
2022/09/01 09:24:27;;;;;;;2.92;1.00;;;20.20;99.90;;;;;;4863027;29;20081;-80
2022/09/01 09:26:56;;;;;;;2.92;0.82;;;20.10;99.90;;;;;;4879811;29;20076;-79
2022/09/01 09:29:21;;;;;;;2.42;0.80;;;20.20;99.90;;;;;;4879741;29;20071;-80
2022/09/01 09:31:48;;;;;;;2.60;0.93;;;20.30;99.90;;;;;;4879826;29;20460;-80
2022/09/01 09:34:32;;;;;;;2.90;0.95;;;20.50;99.90;;;;;;4863003;29;20044;-79
2022/09/01 09:37:19;;;;;;;2.83;0.80;;;20.80;99.90;;;;;;4862899;29;20053;-79
2022/09/01 09:40:00;;;;;;;1.90;0.90;;;21.00;99.90;;;;;;4879799;29;20136;-79
2022/09/01 09:42:26;;;;;;;2.10;0.80;;;21.10;99.90;;;;;;4879612;29;20060;-80
2022/09/01 09:44:54;;;;;;;2.08;0.70;;;20.70;99.90;;;;;;4862859;29;20382;-79
2022/09/01 09:47:42;;;;;;;3.72;1.50;;;21.00;99.90;;;;;;4879451;29;20505;-79
2022/09/01 09:50:43;;;;;;;4.05;1.13;;;21.00;99.90;;;;;;4862765;29;20454;-79
2022/09/01 09:53:31;;;;;;;2.75;0.80;;;20.90;99.90;;;;;;4859367;29;20084;-80
2022/09/01 09:56:16;;;;;;;2.72;0.90;;;21.00;99.90;;;;;;4862886;29;20083;-80
2022/09/01 09:58:45;;;;;;;3.30;0.90;;;21.20;99.90;;;;;;4866820;29;20057;-80
2022/09/01 10:01:24;;;;;;;3.20;0.85;;;21.10;99.90;;;;;;4866379;29;20053;-81
2022/09/01 10:03:59;;;;;;;2.03;0.95;;;21.10;99.90;;;;;;4866366;29;20049;-80
2022/09/01 10:06:35;;;;;;;2.90;1.02;;;20.90;99.90;;;;;;4866334;29;20057;-80
2022/09/01 10:09:07;;;;;;;3.33;1.35;;;21.20;99.90;;;;;;4866224;29;20064;-79
2022/09/01 10:11:43;;;;;;;2.45;0.88;;;21.00;99.90;;;;;;4866274;29;20108;-81
2022/09/01 10:14:16;;;;;;;2.33;0.82;;;20.80;99.90;;;;;;4866427;29;20110;-81
2022/09/01 10:16:43;;;;;;;2.05;0.77;;;20.80;99.90;;;;;;4866081;29;20060;-80
2022/09/01 10:19:14;;;;;;;2.97;0.85;;;20.90;99.90;;;;;;4866174;29;20591;-79
2022/09/01 10:21:43;;;;;;;2.30;0.93;;;20.90;99.90;;;;;;4882730;29;20124;-80
2022/09/01 10:24:29;;;;;;;3.58;0.82;;;21.00;99.90;;;;;;4865994;29;20129;-80
2022/09/01 10:27:20;;;;;;;3.47;1.00;;;20.90;99.90;;;;;;4882903;29;20069;-80
2022/09/01 10:29:53;;;;;;;1.75;0.70;;;21.10;99.90;;;;;;4865972;29;20109;-80
2022/09/01 10:32:28;;;;;;;1.08;0.52;;;21.30;99.90;;;;;;4865813;29;20045;-80
2022/09/01 10:34:55;;;;;;;2.05;0.80;;;21.50;99.90;;;;;;4866067;29;20397;-79
2022/09/01 10:37:22;;;;;;;1.90;0.60;;;21.50;99.90;;;;;;4865659;29;20113;-80
2022/09/01 10:40:09;;;;;;;3.03;0.80;;;21.30;99.90;;;;;;4882720;29;20129;-79
2022/09/01 10:42:35;;;;;;;2.17;0.70;;;21.30;99.90;;;;;;4865713;29;20057;-80
2022/09/01 10:45:01;;;;;;;3.55;0.60;;;21.40;99.90;;;;;;4882374;29;20140;-79
2022/09/01 10:47:32;;;;;;;2.83;0.68;;;21.30;99.90;;;;;;4882429;29;20048;-81
2022/09/01 10:50:26;;;;;;;2.63;0.50;;;21.30;99.90;;;;;;4865593;29;20045;-80
2022/09/01 10:52:57;;;;;;;3.15;0.73;;;21.20;99.90;;;;;;4865345;29;20080;-80
2022/09/01 10:55:44;;;;;;;1.77;0.70;;;21.30;99.90;;;;;;4865423;29;20048;-80
2022/09/01 10:58:24;;;;;;;4.05;0.80;;;21.10;99.90;;;;;;4865781;29;20061;-79
2022/09/01 11:00:52;;;;;;;1.08;0.50;;;21.10;99.90;;;;;;4865593;29;20068;-80
2022/09/01 11:03:17;;;;;;;2.90;0.68;;;20.90;99.90;;;;;;4882100;29;20060;-80
2022/09/01 11:05:52;;;;;;;2.70;0.80;;;20.90;99.90;;;;;;4882090;29;20080;-80
2022/09/01 11:08:27;;;;;;;3.58;0.73;;;21.10;99.90;;;;;;4864100;29;20056;-80
2022/09/01 11:10:57;;;;;;;1.23;0.70;;;21.10;99.90;;;;;;4865193;29;20113;-80
2022/09/01 11:13:45;;;;;;;2.28;0.70;;;21.20;99.90;;;;;;4865137;29;20498;-80
2022/09/01 11:16:40;;;;;;;1.75;0.77;;;21.50;99.90;;;;;;4865189;29;20041;-80
2022/09/01 11:19:30;;;;;;;1.92;0.60;;;21.90;99.90;;;;;;4865275;29;20512;-80
2022/09/01 11:22:22;;;;;;;1.92;0.65;;;21.90;99.90;;;;;;4865544;29;20052;-80
2022/09/01 11:25:12;;;;;;;2.40;0.82;;;22.20;99.90;;;;;;4861947;29;20053;-81
2022/09/01 11:27:47;;;;;;;1.70;0.40;;;22.00;99.90;;;;;;4829983;29;20049;-80
2022/09/01 11:30:22;;;;;;;1.48;0.82;;;21.90;99.90;;;;;;4865134;29;20477;-80
2022/09/01 11:32:56;;;;;;;0.90;0.55;;;21.60;99.90;;;;;;4864898;29;20061;-80
2022/09/01 11:35:25;;;;;;;2.83;0.80;;;21.40;99.90;;;;;;4881600;29;20052;-80
2022/09/01 11:37:56;;;;;;;1.98;0.80;;;21.00;99.90;;;;;;4864709;29;20048;-79
2022/09/01 11:40:28;;;;;;;2.78;0.80;;;21.20;99.90;;;;;;4864735;29;20044;-81
2022/09/01 11:42:56;;;;;;;1.38;0.52;;;21.20;99.90;;;;;;4864834;29;20052;-81
2022/09/01 11:45:27;;;;;;;3.75;0.70;;;21.60;99.90;;;;;;4881474;29;20040;-79
2022/09/01 11:48:04;;;;;;;1.48;0.68;;;21.90;99.90;;;;;;4881282;29;20049;-79
2022/09/01 11:50:33;;;;;;;3.30;0.88;;;22.20;99.90;;;;;;4864788;29;20057;-80
2022/09/01 11:53:03;;;;;;;1.55;0.60;;;22.10;99.90;;;;;;4864673;29;20049;-80
2022/09/01 11:55:45;;;;;;;1.55;0.70;;;22.40;99.90;;;;;;4881110;29;20552;-80
2022/09/01 11:58:33;;;;;;;2.97;0.65;;;22.60;99.90;;;;;;4864343;29;20486;-81
2022/09/01 12:01:20;;;;;;;2.20;0.60;;;22.80;99.90;;;;;;4864238;29;20116;-79
2022/09/01 12:03:49;;;;;;;3.50;0.80;;;22.90;99.90;;;;;;4864203;29;20055;-80
2022/09/01 12:06:28;;;;;;;1.90;0.68;;;23.00;99.90;;;;;;4864377;29;20052;-80
2022/09/01 12:08:57;;;;;;;1.40;0.50;;;22.60;99.90;;;;;;4864061;29;20085;-80
2022/09/01 12:11:30;;;;;;;4.53;0.70;;;22.70;99.90;;;;;;4880802;29;20068;-80
2022/09/01 12:14:00;;;;;;;1.85;0.60;;;22.70;99.90;;;;;;4864401;29;20137;-80
2022/09/01 12:16:28;;;;;;;6.97;2.03;;;22.70;99.90;;;;;;4863935;29;20072;-80
2022/09/01 12:18:57;;;;;;;2.60;0.85;;;22.80;99.90;;;;;;4863840;29;20509;-80
2022/09/01 12:21:29;;;;;;;1.17;0.50;;;22.70;99.90;;;;;;4864215;29;20045;-80
2022/09/01 12:24:18;;;;;;;3.25;1.25;;;22.50;99.90;;;;;;4864315;29;20049;-80
2022/09/01 12:26:50;;;;;;;1.02;0.40;;;22.40;99.90;;;;;;4863791;29;20045;-80
2022/09/01 12:29:17;;;;;;;2.45;1.05;;;22.70;99.90;;;;;;4880672;29;20033;-81
2022/09/01 12:31:45;;;;;;;3.03;0.50;;;22.70;99.90;;;;;;4863645;29;20093;-80
2022/09/01 12:34:27;;;;;;;1.42;0.60;;;23.10;99.90;;;;;;4863943;29;20067;-80
2022/09/01 12:37:19;;;;;;;3.45;0.88;;;23.10;99.90;;;;;;4863519;29;20410;-80
2022/09/01 12:39:48;;;;;;;2.20;0.73;;;23.10;99.90;;;;;;4863897;29;20508;-80
2022/09/01 12:42:20;;;;;;;2.33;0.60;;;23.00;99.90;;;;;;4863601;29;20060;-81
2022/09/01 12:44:52;;;;;;;2.03;0.80;;;23.20;99.90;;;;;;4863582;29;20056;-80
2022/09/01 12:47:34;;;;;;;1.42;0.70;;;23.00;99.90;;;;;;4863542;29;20053;-79
2022/09/01 12:50:20;;;;;;;3.38;0.82;;;22.90;99.90;;;;;;4880389;29;20052;-80
2022/09/01 12:52:49;;;;;;;4.03;0.70;;;23.20;99.90;;;;;;4850640;29;20522;-80
2022/09/01 12:55:31;;;;;;;2.40;0.70;;;23.20;99.90;;;;;;4863279;29;20057;-79
2022/09/01 12:57:59;;;;;;;2.65;0.88;;;22.90;99.90;;;;;;4863591;29;20516;-80
2022/09/01 13:01:07;;;;;;;2.45;0.55;;;22.60;99.90;;;;;;4863311;29;20075;-81
2022/09/01 13:03:33;;;;;;;1.80;0.70;;;22.40;99.90;;;;;;4880065;29;20053;-80
2022/09/01 13:06:02;;;;;;;3.55;0.88;;;22.50;99.90;;;;;;4880169;29;20041;-79
2022/09/01 13:08:31;;;;;;;3.60;0.95;;;22.30;99.90;;;;;;4879902;29;20092;-79
2022/09/01 13:11:00;;;;;;;3.10;0.75;;;22.00;99.90;;;;;;4863405;29;20131;-80
2022/09/01 13:13:27;;;;;;;2.03;0.63;;;22.20;99.90;;;;;;4863212;29;20085;-79
2022/09/01 13:15:58;;;;;;;2.58;0.85;;;22.20;99.90;;;;;;4863207;29;20057;-81
2022/09/01 13:18:25;;;;;;;1.98;0.60;;;22.30;99.90;;;;;;4855760;29;20092;-79
2022/09/01 13:20:52;;;;;;;1.50;0.60;;;22.10;99.90;;;;;;4863060;29;20100;-79
2022/09/01 13:23:18;;;;;;;1.77;0.68;;;22.00;99.90;;;;;;4879816;29;20048;-81
2022/09/01 13:25:45;;;;;;;3.58;0.70;;;21.70;99.90;;;;;;4863061;29;20049;-80
2022/09/01 13:28:14;;;;;;;1.38;0.57;;;21.80;99.90;;;;;;4879870;29;20049;-80
2022/09/01 13:30:41;;;;;;;5.22;0.80;;;22.00;99.90;;;;;;4862699;29;20084;-79
2022/09/01 13:33:08;;;;;;;2.28;0.60;;;22.20;99.90;;;;;;4862806;29;20049;-81